Time;durP1;ratioP1;P1;durP2;ratioP2;P2;SDS_P1;SDS_P2;PMS_P1;PMS_P2;Temp;Humidity;BMP_temperature;BMP_pressure;BME280_temperature;BME280_humidity;BME280_pressure;Samples;Min_cycle;Max_cycle;Signal;HPM_P1;HPM_P2
2023/10/16 00:02:23;;;;;;;4.70;0.93;;;7.30;99.90;;;;;;5065780;28;20440;-54
2023/10/16 00:04:52;;;;;;;7.90;1.37;;;7.30;99.90;;;;;;5066956;28;20597;-60
2023/10/16 00:07:21;;;;;;;3.70;1.10;;;7.30;99.90;;;;;;5066541;28;20444;-57
2023/10/16 00:09:53;;;;;;;2.07;0.90;;;7.30;99.90;;;;;;5066189;28;20420;-54
2023/10/16 00:12:20;;;;;;;5.73;1.40;;;7.30;99.90;;;;;;5069452;28;20445;-58
2023/10/16 00:14:47;;;;;;;2.63;1.90;;;7.30;99.90;;;;;;5060739;28;20483;-60
2023/10/16 00:17:21;;;;;;;1.30;0.90;;;7.20;99.90;;;;;;5066278;28;20424;-47
2023/10/16 00:19:54;;;;;;;2.13;0.97;;;7.30;99.90;;;;;;5060289;28;20693;-54
2023/10/16 00:22:21;;;;;;;2.60;0.90;;;7.20;99.90;;;;;;5067933;28;20452;-66
2023/10/16 00:24:49;;;;;;;3.67;1.03;;;7.30;99.90;;;;;;5070622;28;20470;-49
2023/10/16 00:27:16;;;;;;;3.13;1.27;;;7.30;99.90;;;;;;5065415;28;20420;-54
2023/10/16 00:29:48;;;;;;;2.30;1.50;;;7.20;99.90;;;;;;5068198;28;20464;-58
2023/10/16 00:32:16;;;;;;;5.13;1.17;;;7.20;99.90;;;;;;5067106;28;20457;-58
2023/10/16 00:34:44;;;;;;;3.07;1.00;;;7.20;99.90;;;;;;5056611;28;20495;-51
2023/10/16 00:37:11;;;;;;;6.50;1.73;;;7.10;99.90;;;;;;5065584;28;20470;-61
2023/10/16 00:39:41;;;;;;;1.00;0.60;;;7.10;99.90;;;;;;5067696;28;20440;-55
2023/10/16 00:42:15;;;;;;;2.20;1.20;;;7.10;99.90;;;;;;5060827;28;20427;-56
2023/10/16 00:44:42;;;;;;;4.43;0.83;;;7.10;99.90;;;;;;5068634;28;20460;-61
2023/10/16 00:47:14;;;;;;;3.10;0.80;;;7.10;99.90;;;;;;5066445;28;20444;-57
2023/10/16 00:49:43;;;;;;;3.50;1.10;;;7.10;99.90;;;;;;5068624;28;20451;-55
2023/10/16 00:52:12;;;;;;;5.50;1.27;;;7.10;99.90;;;;;;5058248;28;20460;-52
2023/10/16 00:54:42;;;;;;;1.30;0.87;;;7.10;99.90;;;;;;5057107;28;20487;-51
2023/10/16 00:57:11;;;;;;;5.30;0.90;;;7.10;99.90;;;;;;5057368;28;20413;-50
2023/10/16 00:59:41;;;;;;;1.60;0.83;;;7.10;99.90;;;;;;5057419;28;20502;-57
2023/10/16 01:02:14;;;;;;;1.97;1.00;;;7.10;99.90;;;;;;5055652;28;20434;-63
2023/10/16 01:04:41;;;;;;;2.97;0.90;;;7.10;99.90;;;;;;5056118;28;20420;-55
2023/10/16 01:07:09;;;;;;;1.60;1.20;;;7.00;99.90;;;;;;5056573;28;20527;-54
2023/10/16 01:09:40;;;;;;;1.80;0.90;;;7.00;99.90;;;;;;5060853;28;20444;-50
2023/10/16 01:12:15;;;;;;;2.37;1.03;;;6.90;99.90;;;;;;5060912;28;20408;-58
2023/10/16 01:14:43;;;;;;;3.00;1.00;;;6.90;99.90;;;;;;5060755;28;20499;-55
2023/10/16 01:17:10;;;;;;;3.40;1.17;;;6.90;99.90;;;;;;5061238;28;20447;-55
2023/10/16 01:19:43;;;;;;;1.90;0.83;;;7.00;99.90;;;;;;5060803;28;20497;-51
2023/10/16 01:22:11;;;;;;;2.80;1.00;;;7.00;99.90;;;;;;5060728;28;20424;-54
2023/10/16 01:24:43;;;;;;;1.50;1.10;;;7.00;99.90;;;;;;5060927;28;20439;-57
2023/10/16 01:27:14;;;;;;;3.80;0.97;;;7.00;99.90;;;;;;5060792;28;20412;-55
2023/10/16 01:29:41;;;;;;;5.63;1.13;;;7.00;99.90;;;;;;5060643;28;20429;-53
2023/10/16 01:32:10;;;;;;;4.27;1.30;;;7.00;99.90;;;;;;5060783;28;20429;-57
2023/10/16 01:34:41;;;;;;;2.40;1.10;;;7.00;99.90;;;;;;5060319;28;20471;-56
2023/10/16 01:37:12;;;;;;;1.10;0.80;;;7.00;99.90;;;;;;5060754;28;20424;-58
2023/10/16 01:39:49;;;;;;;3.63;1.13;;;6.90;99.90;;;;;;5060628;28;20413;-61
2023/10/16 01:42:19;;;;;;;1.37;0.77;;;6.90;99.90;;;;;;5060514;28;20428;-57
2023/10/16 01:44:46;;;;;;;1.47;0.90;;;7.00;99.90;;;;;;5060383;28;20428;-60
2023/10/16 01:47:15;;;;;;;3.57;1.40;;;6.90;99.90;;;;;;5060485;28;20451;-56
2023/10/16 01:49:47;;;;;;;1.70;0.90;;;6.90;99.90;;;;;;5060098;28;20460;-51
2023/10/16 01:52:15;;;;;;;1.20;0.90;;;6.90;99.90;;;;;;5060107;28;20452;-56
2023/10/16 01:54:45;;;;;;;3.73;0.90;;;6.90;99.90;;;;;;5059995;28;20521;-55
2023/10/16 01:57:13;;;;;;;4.70;1.10;;;6.90;99.90;;;;;;5060092;28;20409;-57
2023/10/16 01:59:44;;;;;;;1.67;0.90;;;6.80;99.90;;;;;;5060187;28;20512;-61
2023/10/16 02:02:17;;;;;;;9.33;1.47;;;6.80;99.90;;;;;;5059949;28;20460;-60
2023/10/16 02:04:46;;;;;;;3.73;1.50;;;6.80;99.90;;;;;;5059885;28;20516;-58
2023/10/16 02:07:13;;;;;;;1.60;0.87;;;6.80;99.90;;;;;;5059959;28;20459;-59
2023/10/16 02:09:40;;;;;;;5.30;1.13;;;6.80;99.90;;;;;;5059556;28;20471;-56
2023/10/16 02:12:14;;;;;;;10.13;1.30;;;6.80;99.90;;;;;;5059786;28;20463;-61
2023/10/16 02:14:41;;;;;;;2.40;0.97;;;6.80;99.90;;;;;;5059777;28;20472;-59
2023/10/16 02:17:14;;;;;;;3.43;1.40;;;6.80;99.90;;;;;;5059562;28;20448;-62
2023/10/16 02:19:44;;;;;;;11.07;1.47;;;6.80;99.90;;;;;;5056511;28;20427;-59
2023/10/16 02:22:22;;;;;;;1.80;1.50;;;6.70;99.90;;;;;;5039699;28;20413;-50
2023/10/16 02:24:50;;;;;;;2.90;1.30;;;6.70;99.90;;;;;;5039769;28;20457;-50
2023/10/16 02:27:24;;;;;;;1.00;0.90;;;6.70;99.90;;;;;;5039557;28;20436;-62
2023/10/16 02:30:14;;;;;;;2.80;1.03;;;6.80;99.90;;;;;;5039722;28;20433;-54
2023/10/16 02:32:42;;;;;;;2.50;1.20;;;6.70;99.90;;;;;;5039470;28;20456;-53
2023/10/16 02:35:13;;;;;;;2.80;1.20;;;6.60;99.90;;;;;;5059041;28;20494;-52
2023/10/16 02:37:45;;;;;;;2.13;1.40;;;6.60;99.90;;;;;;5059342;28;20413;-57
2023/10/16 02:40:17;;;;;;;7.73;1.20;;;6.60;99.90;;;;;;5058845;28;20482;-59
2023/10/16 02:42:51;;;;;;;2.50;1.10;;;6.60;99.90;;;;;;5059135;28;20460;-56
2023/10/16 02:45:24;;;;;;;4.17;1.00;;;6.70;99.90;;;;;;5059272;28;20427;-55
2023/10/16 02:47:53;;;;;;;2.20;1.43;;;6.70;99.90;;;;;;5059060;28;20556;-55
2023/10/16 02:50:24;;;;;;;4.00;1.33;;;6.60;99.90;;;;;;5058926;28;20436;-64
2023/10/16 02:52:56;;;;;;;1.10;0.90;;;6.60;99.90;;;;;;5058964;28;20564;-57
2023/10/16 02:55:23;;;;;;;1.33;1.07;;;6.70;99.90;;;;;;5058596;28;20499;-56
2023/10/16 02:57:52;;;;;;;4.23;1.10;;;6.60;99.90;;;;;;5058808;28;20440;-58
2023/10/16 03:00:34;;;;;;;7.17;2.13;;;6.60;99.90;;;;;;5058698;28;20432;-61
2023/10/16 03:03:05;;;;;;;1.43;0.90;;;6.50;99.90;;;;;;5058667;28;20452;-52
2023/10/16 03:05:32;;;;;;;4.20;1.17;;;6.50;99.90;;;;;;5058754;28;20425;-55
2023/10/16 03:08:00;;;;;;;2.77;1.40;;;6.50;99.90;;;;;;5058901;28;20475;-52
2023/10/16 03:10:30;;;;;;;4.90;1.40;;;6.50;99.90;;;;;;5058864;28;20488;-53
2023/10/16 03:13:05;;;;;;;1.63;1.53;;;6.50;99.90;;;;;;5058731;28;20487;-60
2023/10/16 03:15:42;;;;;;;3.70;1.00;;;6.50;99.90;;;;;;5058449;28;20515;-50
2023/10/16 03:18:16;;;;;;;3.20;1.00;;;6.50;99.90;;;;;;5057976;28;20442;-53
2023/10/16 03:20:44;;;;;;;1.37;0.93;;;6.40;99.90;;;;;;5058751;28;20412;-60
2023/10/16 03:23:12;;;;;;;4.93;1.30;;;6.40;99.90;;;;;;5058221;28;20448;-54
2023/10/16 03:25:51;;;;;;;2.67;1.27;;;6.50;99.90;;;;;;5058228;28;20478;-60
2023/10/16 03:28:21;;;;;;;9.70;1.37;;;6.40;99.90;;;;;;5058317;28;20436;-55
2023/10/16 03:30:51;;;;;;;17.30;1.47;;;6.40;99.90;;;;;;5058222;28;20444;-59
2023/10/16 03:33:18;;;;;;;4.07;1.20;;;6.40;99.90;;;;;;5058190;28;20456;-55
2023/10/16 03:35:50;;;;;;;2.30;0.80;;;6.40;99.90;;;;;;5058407;28;20530;-52
2023/10/16 03:38:26;;;;;;;5.57;2.40;;;6.40;99.90;;;;;;5058158;28;20427;-62
2023/10/16 03:40:58;;;;;;;6.63;1.20;;;6.40;99.90;;;;;;5058344;28;20420;-51
2023/10/16 03:43:30;;;;;;;2.93;0.97;;;6.40;99.90;;;;;;5076043;28;20435;-55
2023/10/16 03:45:58;;;;;;;3.73;1.30;;;6.40;99.90;;;;;;5078166;28;20482;-59
2023/10/16 03:48:27;;;;;;;5.20;1.80;;;6.40;99.90;;;;;;5078128;28;20473;-54
2023/10/16 03:50:56;;;;;;;7.00;1.30;;;6.40;99.90;;;;;;5078008;28;20456;-54
2023/10/16 03:53:32;;;;;;;4.07;1.20;;;6.40;99.90;;;;;;5077995;28;20439;-55
2023/10/16 03:56:04;;;;;;;2.70;1.23;;;6.40;99.90;;;;;;5077629;28;20499;-62
2023/10/16 03:58:40;;;;;;;1.80;1.10;;;6.40;99.90;;;;;;5078095;28;20416;-56
2023/10/16 04:01:08;;;;;;;5.20;1.20;;;6.40;99.90;;;;;;5078083;28;20422;-53
2023/10/16 04:03:46;;;;;;;1.70;1.20;;;6.40;99.90;;;;;;5070218;28;20464;-59
2023/10/16 04:06:19;;;;;;;6.37;1.40;;;6.40;99.90;;;;;;5058013;28;20440;-59
2023/10/16 04:08:49;;;;;;;3.20;1.20;;;6.40;99.90;;;;;;5057895;28;20483;-61
2023/10/16 04:11:16;;;;;;;3.30;1.00;;;6.40;99.90;;;;;;5057526;28;20448;-51
2023/10/16 04:13:48;;;;;;;3.43;0.90;;;6.40;99.90;;;;;;5057903;28;20475;-57
2023/10/16 04:16:30;;;;;;;4.20;1.30;;;6.40;99.90;;;;;;5057812;28;20563;-55
2023/10/16 04:19:07;;;;;;;7.13;0.90;;;6.40;99.90;;;;;;5057984;28;20409;-59
2023/10/16 04:21:40;;;;;;;6.80;1.20;;;6.30;99.90;;;;;;5057171;28;20468;-55
2023/10/16 04:24:30;;;;;;;1.40;0.83;;;6.30;99.90;;;;;;5057815;28;20440;-57
2023/10/16 04:29:49;;;;;;;9.30;1.07;;;6.30;99.90;;;;;;5040736;28;20420;-65
2023/10/16 04:32:20;;;;;;;11.20;1.67;;;6.30;99.90;;;;;;5057616;28;20428;-59
2023/10/16 04:34:54;;;;;;;5.43;1.40;;;6.30;99.90;;;;;;5057354;28;20479;-57
2023/10/16 04:37:36;;;;;;;3.10;1.33;;;6.30;99.90;;;;;;5057412;28;20448;-55
2023/10/16 04:43:07;;;;;;;1.73;1.20;;;6.30;99.90;;;;;;5058639;28;20414;-54
2023/10/16 04:45:59;;;;;;;4.87;1.77;;;6.30;99.90;;;;;;5061408;28;20451;-58
2023/10/16 04:48:48;;;;;;;1.37;0.80;;;6.20;99.90;;;;;;5061419;28;20459;-55
2023/10/16 04:51:22;;;;;;;4.10;0.90;;;6.20;99.90;;;;;;5061346;28;20416;-54
2023/10/16 04:54:13;;;;;;;2.07;0.90;;;6.20;99.90;;;;;;5061417;28;20451;-53
2023/10/16 04:57:37;;;;;;;3.80;1.17;;;6.20;99.90;;;;;;5061477;28;20451;-57
2023/10/16 05:00:00;;;;;;;4.10;1.20;;;6.20;99.90;;;;;;5061412;28;20487;-56
2023/10/16 05:02:52;;;;;;;2.70;1.23;;;6.20;99.90;;;;;;5060560;28;20467;-53
2023/10/16 05:05:56;;;;;;;7.00;1.90;;;6.20;99.90;;;;;;5040930;28;20445;-60
2023/10/16 05:08:59;;;;;;;4.37;1.73;;;6.20;99.90;;;;;;5040620;28;20420;-56
2023/10/16 05:11:27;;;;;;;2.03;1.20;;;6.10;99.90;;;;;;5041052;28;20465;-55
2023/10/16 05:14:50;;;;;;;2.13;1.23;;;6.20;99.90;;;;;;5040465;28;20440;-50
2023/10/16 05:17:21;;;;;;;5.23;2.77;;;6.10;99.90;;;;;;5041103;28;20437;-53
2023/10/16 05:20:45;;;;;;;2.37;1.20;;;6.10;99.90;;;;;;5041037;28;20426;-53
2023/10/16 06:15:42;;;;;;;1.40;1.00;;;6.30;99.90;;;;;;5015602;28;20473;-57
2023/10/16 06:18:11;;;;;;;5.83;1.30;;;6.30;99.90;;;;;;5048696;28;20437;-59
2023/10/16 06:20:43;;;;;;;1.97;1.30;;;6.40;99.90;;;;;;5062796;28;20441;-53
2023/10/16 06:23:12;;;;;;;1.73;1.40;;;6.30;99.90;;;;;;5061645;28;20452;-52
2023/10/16 06:25:40;;;;;;;3.77;1.40;;;6.30;99.90;;;;;;5063863;28;20479;-58
2023/10/16 06:28:11;;;;;;;4.03;1.23;;;6.40;99.90;;;;;;5058864;28;20444;-54
2023/10/16 06:30:38;;;;;;;2.23;1.33;;;6.40;99.90;;;;;;5067608;28;20482;-63
2023/10/16 06:33:06;;;;;;;1.73;1.03;;;6.40;99.90;;;;;;5065201;28;20463;-63
2023/10/16 06:35:36;;;;;;;1.83;1.13;;;6.50;99.90;;;;;;5057787;28;20523;-62
2023/10/16 06:38:11;;;;;;;1.80;1.03;;;6.40;99.90;;;;;;5047332;28;20446;-56
2023/10/16 06:40:40;;;;;;;2.10;1.03;;;6.50;99.90;;;;;;5064172;28;20422;-55
2023/10/16 06:43:10;;;;;;;1.73;1.10;;;6.50;99.90;;;;;;5062712;28;20439;-55
2023/10/16 06:45:42;;;;;;;2.90;1.30;;;6.50;99.90;;;;;;5069897;28;20463;-50
2023/10/16 06:48:14;;;;;;;4.97;1.23;;;6.50;99.90;;;;;;5066063;28;20407;-56
2023/10/16 06:50:52;;;;;;;1.93;1.20;;;6.50;99.90;;;;;;5058179;28;20473;-53
2023/10/16 06:53:23;;;;;;;3.20;1.40;;;6.60;99.90;;;;;;5059905;28;20457;-55
2023/10/16 06:55:52;;;;;;;3.20;1.27;;;6.60;99.90;;;;;;5055649;28;20480;-62
2023/10/16 06:58:21;;;;;;;3.73;1.43;;;6.70;99.90;;;;;;5066481;28;20462;-61
2023/10/16 07:00:48;;;;;;;6.03;1.30;;;6.80;99.90;;;;;;5063590;28;20439;-49
2023/10/16 07:03:16;;;;;;;3.67;1.60;;;6.90;99.90;;;;;;5064616;28;20490;-56
2023/10/16 07:05:48;;;;;;;3.30;1.90;;;6.90;99.90;;;;;;5062651;28;20459;-63
2023/10/16 07:08:20;;;;;;;5.50;2.20;;;6.90;99.90;;;;;;5066130;28;20442;-52
2023/10/16 07:10:49;;;;;;;5.63;1.57;;;7.00;99.90;;;;;;5047713;28;20459;-75
2023/10/16 07:13:26;;;;;;;1.97;1.27;;;7.10;99.90;;;;;;5041724;28;20913;-71
2023/10/16 07:15:57;;;;;;;8.23;2.30;;;7.10;99.90;;;;;;5043102;28;20483;-68
2023/10/16 07:18:25;;;;;;;5.00;1.40;;;7.10;99.90;;;;;;5042113;28;20459;-67
2023/10/16 07:21:07;;;;;;;2.13;1.30;;;7.20;99.90;;;;;;5038323;28;20885;-71
2023/10/16 07:23:35;;;;;;;3.43;1.20;;;7.20;99.90;;;;;;5039206;28;20482;-73
2023/10/16 07:26:03;;;;;;;2.23;1.43;;;7.20;99.90;;;;;;5036350;28;22208;-72
2023/10/16 07:28:32;;;;;;;3.67;1.27;;;7.20;99.90;;;;;;5034477;28;20480;-74
2023/10/16 07:31:02;;;;;;;6.13;1.50;;;7.20;99.90;;;;;;5016672;28;20523;-70
2023/10/16 07:33:30;;;;;;;1.73;1.30;;;7.30;99.90;;;;;;5014438;28;20520;-71
2023/10/16 07:35:59;;;;;;;4.90;1.70;;;7.40;99.90;;;;;;5026553;28;20575;-73
2023/10/16 07:38:27;;;;;;;2.57;1.50;;;7.40;99.90;;;;;;5034133;28;20467;-72
2023/10/16 07:40:55;;;;;;;11.93;3.50;;;7.50;99.90;;;;;;5055543;28;20476;-53
2023/10/16 07:43:26;;;;;;;4.40;1.73;;;7.60;99.90;;;;;;5062881;28;20476;-65
2023/10/16 07:46:07;;;;;;;6.00;1.80;;;7.80;99.90;;;;;;5058238;28;20483;-62
2023/10/16 07:48:37;;;;;;;4.60;1.33;;;7.90;99.90;;;;;;5043920;28;20484;-56
2023/10/16 07:51:06;;;;;;;3.97;3.67;;;7.90;99.90;;;;;;5058704;28;20487;-61
2023/10/16 07:53:35;;;;;;;5.63;1.50;;;7.90;99.90;;;;;;5056098;28;20449;-58
2023/10/16 07:56:19;;;;;;;4.57;1.93;;;8.00;99.90;;;;;;5063241;28;20473;-60
2023/10/16 07:59:06;;;;;;;3.80;1.37;;;8.10;99.90;;;;;;5061316;28;20447;-56
2023/10/16 08:01:42;;;;;;;2.20;1.60;;;8.10;99.90;;;;;;5077043;28;20416;-57
2023/10/16 08:04:27;;;;;;;6.10;1.73;;;8.10;99.90;;;;;;5059250;28;20491;-54
2023/10/16 08:06:57;;;;;;;5.37;2.07;;;8.20;99.90;;;;;;5058516;28;20487;-59
2023/10/16 08:12:18;;;;;;;6.13;2.07;;;8.30;99.90;;;;;;5059637;28;20428;-54
2023/10/16 08:14:51;;;;;;;4.00;1.80;;;8.40;99.90;;;;;;5068966;28;20522;-64
2023/10/16 08:17:23;;;;;;;4.80;1.53;;;8.40;99.90;;;;;;5062621;28;20452;-52
2023/10/16 08:19:54;;;;;;;3.30;1.43;;;8.50;99.90;;;;;;5068904;28;20443;-61
2023/10/16 08:22:25;;;;;;;5.20;1.90;;;8.60;99.90;;;;;;5063355;28;20443;-51
2023/10/16 08:25:04;;;;;;;2.77;1.73;;;8.50;99.90;;;;;;5068441;28;20437;-58
2023/10/16 08:30:32;;;;;;;3.43;1.77;;;8.60;99.90;;;;;;5058211;28;20475;-54
2023/10/16 08:33:09;;;;;;;4.43;2.33;;;8.80;99.90;;;;;;5060887;28;20463;-51
2023/10/16 08:35:39;;;;;;;4.00;1.90;;;9.10;99.90;;;;;;5045718;28;20456;-57
2023/10/16 08:38:11;;;;;;;6.87;3.00;;;9.30;99.90;;;;;;5054722;28;21104;-59
2023/10/16 08:40:43;;;;;;;3.23;1.43;;;9.70;99.90;;;;;;5059339;28;20417;-55
2023/10/16 08:43:16;;;;;;;9.33;1.93;;;9.60;99.90;;;;;;5053035;28;20467;-60
2023/10/16 08:45:49;;;;;;;1.60;1.40;;;9.40;99.90;;;;;;5052698;28;20472;-55
2023/10/16 08:48:21;;;;;;;2.87;1.70;;;9.40;99.90;;;;;;5054409;28;20440;-60
2023/10/16 08:50:57;;;;;;;5.50;1.40;;;9.40;99.90;;;;;;5048573;28;20468;-52
2023/10/16 08:53:34;;;;;;;2.60;1.57;;;9.30;99.90;;;;;;5056496;28;20478;-64
2023/10/16 08:56:07;;;;;;;3.83;1.87;;;9.30;99.90;;;;;;5058481;28;20567;-51
2023/10/16 08:58:39;;;;;;;6.10;1.63;;;9.30;99.90;;;;;;5064862;28;20460;-56
2023/10/16 09:01:08;;;;;;;7.97;1.40;;;9.30;99.90;;;;;;5068141;28;20440;-56
2023/10/16 09:03:38;;;;;;;4.13;1.70;;;9.40;99.90;;;;;;5066870;28;20456;-56
2023/10/16 09:06:13;;;;;;;6.10;1.47;;;9.60;99.90;;;;;;5066479;28;20523;-64
2023/10/16 09:08:41;;;;;;;1.23;0.90;;;9.80;99.90;;;;;;5064996;28;20428;-60
2023/10/16 09:11:08;;;;;;;5.43;1.53;;;9.90;99.90;;;;;;5071368;28;20450;-52
2023/10/16 09:13:38;;;;;;;4.30;1.40;;;10.00;99.90;;;;;;5061980;28;20448;-63
2023/10/16 09:16:13;;;;;;;3.73;1.40;;;10.20;99.90;;;;;;5062273;28;20472;-71
2023/10/16 09:18:40;;;;;;;2.83;1.50;;;10.30;99.90;;;;;;5061360;28;20415;-63
2023/10/16 09:21:22;;;;;;;1.97;1.27;;;10.40;99.90;;;;;;5060901;28;20487;-62
2023/10/16 09:23:52;;;;;;;2.60;1.20;;;10.80;99.90;;;;;;5060695;28;20519;-59
2023/10/16 09:26:22;;;;;;;1.80;1.10;;;11.00;99.90;;;;;;5062987;28;20450;-58
2023/10/16 09:28:53;;;;;;;2.07;1.40;;;11.30;99.90;;;;;;5059147;28;20470;-57
2023/10/16 09:31:21;;;;;;;2.53;1.50;;;11.30;99.90;;;;;;5067036;28;20494;-64
2023/10/16 09:33:49;;;;;;;2.70;1.67;;;12.10;99.90;;;;;;5058502;28;20453;-58
2023/10/16 09:36:22;;;;;;;2.73;1.33;;;13.30;99.90;;;;;;5070554;28;20495;-58
2023/10/16 09:38:56;;;;;;;2.17;1.20;;;14.60;99.90;;;;;;5051494;28;20424;-54
2023/10/16 09:41:38;;;;;;;2.80;1.37;;;15.50;99.90;;;;;;5053216;28;20436;-55
2023/10/16 09:44:21;;;;;;;5.17;1.73;;;16.50;99.90;;;;;;5051264;28;20457;-60
2023/10/16 09:46:59;;;;;;;3.83;1.63;;;17.30;99.90;;;;;;5069316;28;20502;-63
2023/10/16 09:49:35;;;;;;;1.47;1.03;;;17.90;99.90;;;;;;5062673;28;20468;-63
2023/10/16 09:52:08;;;;;;;3.10;1.57;;;18.30;99.90;;;;;;5065552;28;20443;-69
2023/10/16 09:54:35;;;;;;;3.93;1.40;;;17.80;99.90;;;;;;5071320;28;20433;-67
2023/10/16 09:57:08;;;;;;;3.83;1.33;;;16.60;99.90;;;;;;5066123;28;20464;-65
2023/10/16 09:59:38;;;;;;;3.23;1.30;;;16.40;99.90;;;;;;5057927;28;20451;-52
2023/10/16 10:02:16;;;;;;;2.13;1.40;;;16.70;99.90;;;;;;5057969;28;20468;-64
2023/10/16 10:04:53;;;;;;;3.27;1.17;;;16.40;99.90;;;;;;5059165;28;20467;-59
2023/10/16 10:07:34;;;;;;;7.80;3.10;;;15.70;99.90;;;;;;5059566;28;20468;-62
2023/10/16 10:11:04;;;;;;;1.67;1.23;;;15.00;99.90;;;;;;5071766;28;20484;-57
2023/10/16 10:12:57;;;;;;;3.47;1.30;;;15.40;99.90;;;;;;5069513;28;20440;-53
2023/10/16 10:15:26;;;;;;;4.13;1.40;;;16.40;99.90;;;;;;5064687;28;20467;-68
2023/10/16 10:18:17;;;;;;;2.20;1.30;;;17.20;99.90;;;;;;5062242;28;20506;-57
2023/10/16 10:20:44;;;;;;;2.70;1.40;;;17.60;99.90;;;;;;5056548;28;20484;-60
2023/10/16 10:23:16;;;;;;;2.47;1.43;;;18.20;99.50;;;;;;5059168;28;20428;-66
2023/10/16 10:25:45;;;;;;;3.10;1.57;;;18.80;98.50;;;;;;5049779;28;20429;-55
2023/10/16 10:28:22;;;;;;;2.93;1.10;;;19.20;96.10;;;;;;5045815;28;20539;-57
2023/10/16 10:30:50;;;;;;;3.20;1.20;;;19.50;93.80;;;;;;5051223;28;20485;-61
2023/10/16 10:33:51;;;;;;;2.60;1.20;;;19.20;92.20;;;;;;5048632;28;20735;-51
2023/10/16 10:36:32;;;;;;;4.17;1.27;;;18.40;91.70;;;;;;5052080;28;20483;-54
2023/10/16 10:39:43;;;;;;;3.23;1.50;;;17.60;92.20;;;;;;5050889;28;20476;-59
2023/10/16 10:42:23;;;;;;;2.90;1.20;;;16.30;94.30;;;;;;5051486;28;20444;-57
2023/10/16 10:47:41;;;;;;;3.43;1.10;;;14.20;99.90;;;;;;5053760;28;20448;-55
2023/10/16 10:50:13;;;;;;;4.60;1.40;;;13.60;99.90;;;;;;5054672;28;20463;-67
2023/10/16 10:52:46;;;;;;;3.50;1.00;;;13.00;99.90;;;;;;5047918;28;20444;-62
2023/10/16 10:55:19;;;;;;;10.23;3.43;;;12.60;99.90;;;;;;5050999;28;20482;-63
2023/10/16 10:57:58;;;;;;;1.67;1.57;;;12.20;99.90;;;;;;5058354;28;20508;-59
2023/10/16 11:00:45;;;;;;;2.60;1.10;;;12.00;99.90;;;;;;5061773;28;20485;-55
2023/10/16 11:03:22;;;;;;;1.83;1.03;;;11.90;99.90;;;;;;5057241;28;20452;-56
2023/10/16 11:05:52;;;;;;;11.37;1.83;;;11.90;99.90;;;;;;5056597;28;20502;-64
2023/10/16 11:08:19;;;;;;;4.07;1.20;;;12.00;99.90;;;;;;5058442;28;20417;-54
2023/10/16 11:10:47;;;;;;;1.30;0.80;;;12.00;99.90;;;;;;5058453;28;20443;-60
2023/10/16 11:13:18;;;;;;;6.30;1.60;;;12.00;99.90;;;;;;5057855;28;20472;-63
2023/10/16 11:15:52;;;;;;;5.13;2.13;;;12.00;99.90;;;;;;5057666;28;20436;-67
2023/10/16 11:18:20;;;;;;;2.13;1.00;;;12.00;99.90;;;;;;5058086;28;20412;-56
2023/10/16 11:20:53;;;;;;;4.23;1.07;;;11.90;99.90;;;;;;5058097;28;20459;-50
2023/10/16 11:23:21;;;;;;;2.10;1.10;;;11.80;99.90;;;;;;5057931;28;20495;-65
2023/10/16 11:25:52;;;;;;;3.83;1.27;;;11.70;99.90;;;;;;5057708;28;20492;-62
2023/10/16 11:28:22;;;;;;;1.50;1.00;;;11.60;99.90;;;;;;5050208;28;20464;-63
2023/10/16 11:30:53;;;;;;;1.10;0.83;;;11.60;99.90;;;;;;5049924;28;20448;-56
2023/10/16 11:33:28;;;;;;;1.90;1.03;;;11.70;99.90;;;;;;5057709;28;20432;-60
2023/10/16 11:36:02;;;;;;;3.47;1.27;;;11.80;99.90;;;;;;5057774;28;20439;-61
2023/10/16 11:38:29;;;;;;;2.47;1.30;;;11.90;99.90;;;;;;5058103;28;20467;-59
2023/10/16 11:40:57;;;;;;;1.63;0.83;;;12.10;99.90;;;;;;5056118;28;20463;-66
2023/10/16 11:43:25;;;;;;;1.50;1.07;;;12.10;99.90;;;;;;5057835;28;20504;-56
2023/10/16 11:45:56;;;;;;;2.40;1.17;;;12.10;99.90;;;;;;5060085;28;20464;-60
2023/10/16 11:48:42;;;;;;;6.23;1.50;;;12.00;99.90;;;;;;5053934;28;20925;-66
2023/10/16 11:51:16;;;;;;;2.83;1.50;;;12.10;99.90;;;;;;5058126;28;20489;-64
2023/10/16 11:53:44;;;;;;;9.33;1.63;;;12.40;99.90;;;;;;5057904;28;20447;-63
2023/10/16 11:56:13;;;;;;;2.83;1.27;;;12.60;99.90;;;;;;5057270;28;20479;-65
2023/10/16 11:58:48;;;;;;;3.23;1.20;;;12.80;99.90;;;;;;5062258;28;20409;-62
2023/10/16 12:01:17;;;;;;;3.07;1.17;;;12.90;99.90;;;;;;5056658;28;20412;-59
2023/10/16 12:03:44;;;;;;;1.97;0.80;;;13.00;99.90;;;;;;5056490;28;20495;-59
2023/10/16 12:06:13;;;;;;;2.80;1.77;;;13.20;99.90;;;;;;5067195;28;20443;-65
2023/10/16 12:08:41;;;;;;;3.33;1.30;;;13.50;99.90;;;;;;5061499;28;20460;-64
2023/10/16 12:11:11;;;;;;;4.10;1.10;;;13.50;99.90;;;;;;5060476;28;20478;-55
2023/10/16 12:13:38;;;;;;;2.57;1.10;;;13.40;99.90;;;;;;5062549;28;20460;-67
2023/10/16 12:16:08;;;;;;;3.50;1.47;;;13.30;99.90;;;;;;5064269;28;20478;-67
2023/10/16 12:18:37;;;;;;;3.73;1.40;;;13.00;99.90;;;;;;5064723;28;20446;-67
2023/10/16 12:21:08;;;;;;;9.43;1.60;;;12.80;99.90;;;;;;5070498;28;20446;-52
2023/10/16 12:23:38;;;;;;;3.27;1.07;;;12.70;99.90;;;;;;5063671;28;20468;-70
2023/10/16 12:26:05;;;;;;;1.47;0.80;;;12.60;99.90;;;;;;5055088;28;20429;-70
2023/10/16 12:28:32;;;;;;;4.03;1.43;;;12.50;99.90;;;;;;5055514;28;20606;-67
2023/10/16 12:31:02;;;;;;;1.93;0.97;;;12.40;99.90;;;;;;5055567;28;20460;-69
2023/10/16 12:33:31;;;;;;;6.60;1.17;;;12.30;99.90;;;;;;5061119;28;20968;-64
2023/10/16 12:36:01;;;;;;;1.10;0.70;;;12.30;99.90;;;;;;5066570;28;20460;-66
2023/10/16 12:38:28;;;;;;;7.37;1.30;;;12.20;99.90;;;;;;5064998;28;20456;-54
2023/10/16 12:40:58;;;;;;;2.60;1.00;;;12.00;99.90;;;;;;5063782;28;20471;-62
2023/10/16 12:43:28;;;;;;;4.20;1.27;;;12.00;99.90;;;;;;5064972;28;20432;-63
2023/10/16 12:45:57;;;;;;;1.80;1.10;;;11.90;99.90;;;;;;5060976;28;20451;-62
2023/10/16 12:48:28;;;;;;;6.93;1.63;;;11.70;99.90;;;;;;5062999;28;20468;-61
2023/10/16 12:50:59;;;;;;;4.40;1.43;;;11.60;99.90;;;;;;5056692;28;20441;-58
2023/10/16 12:53:29;;;;;;;1.33;1.10;;;11.60;99.90;;;;;;5056491;28;20452;-63
2023/10/16 12:55:58;;;;;;;2.90;1.67;;;11.60;99.90;;;;;;5056186;28;20464;-59
2023/10/16 12:58:28;;;;;;;1.53;1.10;;;11.60;99.90;;;;;;5055422;28;20474;-61
2023/10/16 13:00:58;;;;;;;1.93;1.40;;;11.60;99.90;;;;;;5056052;28;20496;-59
2023/10/16 13:03:25;;;;;;;2.80;1.10;;;11.60;99.90;;;;;;5055474;28;20449;-65
2023/10/16 13:05:53;;;;;;;1.70;0.90;;;11.50;99.90;;;;;;5058286;28;20478;-72
2023/10/16 13:08:21;;;;;;;4.10;1.00;;;11.50;99.90;;;;;;5058509;28;20508;-66
2023/10/16 13:10:50;;;;;;;6.23;1.20;;;11.50;99.90;;;;;;5043011;28;20503;-61
2023/10/16 13:13:20;;;;;;;3.03;1.37;;;11.40;99.90;;;;;;5039439;28;20456;-57
2023/10/16 13:15:51;;;;;;;4.00;1.20;;;11.40;99.90;;;;;;5050356;28;20455;-64
2023/10/16 13:18:26;;;;;;;8.63;1.13;;;11.30;99.90;;;;;;5059691;28;20493;-58
2023/10/16 13:20:57;;;;;;;6.77;1.23;;;11.30;99.90;;;;;;5047823;28;20471;-61
2023/10/16 13:23:27;;;;;;;1.90;1.07;;;11.30;99.90;;;;;;5059604;28;20518;-64
2023/10/16 13:25:57;;;;;;;2.07;1.20;;;11.30;99.90;;;;;;5059756;28;20444;-61
2023/10/16 13:28:28;;;;;;;1.93;1.30;;;11.30;99.90;;;;;;5058810;28;20440;-61
2023/10/16 13:30:55;;;;;;;1.93;1.03;;;11.40;99.90;;;;;;5040198;28;20601;-57
2023/10/16 13:33:22;;;;;;;2.57;1.00;;;11.30;99.90;;;;;;5055915;28;20479;-70
2023/10/16 13:35:50;;;;;;;2.80;1.40;;;11.30;99.90;;;;;;5059641;28;20420;-66
2023/10/16 13:38:20;;;;;;;1.90;1.00;;;11.30;99.90;;;;;;5059602;28;20483;-61
2023/10/16 13:40:49;;;;;;;1.10;0.83;;;11.20;99.90;;;;;;5059833;28;20428;-59
2023/10/16 13:43:18;;;;;;;1.30;1.20;;;11.10;99.90;;;;;;5059308;28;20440;-65
2023/10/16 13:45:45;;;;;;;2.70;1.30;;;11.10;99.90;;;;;;5060131;28;20456;-68
2023/10/16 13:48:15;;;;;;;1.60;0.90;;;11.10;99.90;;;;;;5057823;28;20475;-62
2023/10/16 13:50:47;;;;;;;1.60;1.20;;;11.10;99.90;;;;;;5060241;28;20448;-58
2023/10/16 13:53:19;;;;;;;1.77;1.00;;;11.10;99.90;;;;;;5059023;28;20504;-59
2023/10/16 13:55:54;;;;;;;2.80;1.00;;;11.10;99.90;;;;;;5059870;28;20470;-65
2023/10/16 13:58:21;;;;;;;5.23;1.40;;;11.20;99.90;;;;;;5059814;28;20479;-57
2023/10/16 14:00:48;;;;;;;1.30;1.00;;;11.30;99.90;;;;;;5057748;28;20459;-55
2023/10/16 14:03:25;;;;;;;1.80;1.00;;;11.30;99.90;;;;;;5053099;28;20506;-62
2023/10/16 14:05:52;;;;;;;1.33;1.20;;;11.20;99.90;;;;;;5059790;28;20417;-58
2023/10/16 14:08:26;;;;;;;3.13;1.13;;;11.30;99.90;;;;;;5058840;28;20476;-62
2023/10/16 14:10:57;;;;;;;2.23;1.10;;;11.40;99.90;;;;;;5059986;28;20427;-62
2023/10/16 14:13:26;;;;;;;2.20;1.43;;;11.50;99.90;;;;;;5059668;28;20479;-56
2023/10/16 14:16:08;;;;;;;1.60;1.00;;;11.50;99.90;;;;;;5056294;28;20482;-56
2023/10/16 14:18:35;;;;;;;2.10;1.20;;;11.60;99.90;;;;;;5057381;28;20464;-60
2023/10/16 14:21:08;;;;;;;3.37;1.67;;;11.50;99.90;;;;;;5059496;28;20463;-53
2023/10/16 14:23:38;;;;;;;3.50;1.10;;;11.40;99.90;;;;;;5059007;28;20486;-57
2023/10/16 14:26:20;;;;;;;2.63;1.07;;;11.40;99.90;;;;;;5059595;28;20467;-60
2023/10/16 14:28:51;;;;;;;11.10;1.13;;;11.40;99.90;;;;;;5059344;28;20475;-60